Time;durP1;ratioP1;P1;durP2;ratioP2;P2;SDS_P1;SDS_P2;PMS_P1;PMS_P2;Temp;Humidity;BMP_temperature;BMP_pressure;BME280_temperature;BME280_humidity;BME280_pressure;Samples;Min_cycle;Max_cycle;Signal;HPM_P1;HPM_P2
2023/03/18 00:02:02;;;;;;;8.67;6.97;;;6.40;82.30;;;;;;5090792;28;20684;-65
2023/03/18 00:04:29;;;;;;;10.10;6.70;;;6.40;82.70;;;;;;5092826;28;20292;-65
2023/03/18 00:06:57;;;;;;;10.03;7.73;;;6.40;82.90;;;;;;5089524;28;20218;-65
2023/03/18 00:09:25;;;;;;;11.10;7.73;;;6.30;83.00;;;;;;5091850;28;20634;-65
2023/03/18 00:11:55;;;;;;;10.03;7.07;;;6.30;83.00;;;;;;5089738;28;20547;-65
2023/03/18 00:14:22;;;;;;;8.30;5.87;;;6.30;83.30;;;;;;5088895;28;20190;-65
2023/03/18 00:16:49;;;;;;;9.60;6.37;;;6.20;83.30;;;;;;5089592;28;20288;-65
2023/03/18 00:19:17;;;;;;;9.77;6.40;;;6.20;82.80;;;;;;5090573;28;20544;-65
2023/03/18 00:21:44;;;;;;;9.80;6.23;;;6.20;82.30;;;;;;5090264;28;20214;-65
2023/03/18 00:24:11;;;;;;;9.00;6.60;;;6.10;82.20;;;;;;5092008;28;20197;-65
2023/03/18 00:26:38;;;;;;;7.60;6.07;;;6.10;82.50;;;;;;5088851;28;20297;-65
2023/03/18 00:29:06;;;;;;;9.70;6.57;;;6.10;82.60;;;;;;5088531;28;20197;-65
2023/03/18 00:31:33;;;;;;;9.60;7.03;;;6.10;82.90;;;;;;5090264;28;20280;-65
2023/03/18 00:34:01;;;;;;;9.60;6.27;;;6.10;82.90;;;;;;5091031;28;20567;-65
2023/03/18 00:36:29;;;;;;;7.87;6.10;;;6.10;82.80;;;;;;5092353;28;20273;-65
2023/03/18 00:38:58;;;;;;;11.13;7.10;;;6.10;82.90;;;;;;5089099;28;20202;-65
2023/03/18 00:41:31;;;;;;;11.50;6.27;;;6.00;82.80;;;;;;5091501;28;20722;-65
2023/03/18 00:43:59;;;;;;;10.30;6.87;;;6.00;82.80;;;;;;5086715;28;20601;-65
2023/03/18 00:46:32;;;;;;;15.47;9.37;;;6.00;82.90;;;;;;5089764;28;20673;-65
2023/03/18 00:49:03;;;;;;;9.90;7.93;;;6.00;83.10;;;;;;5087855;28;20202;-65
2023/03/18 00:51:34;;;;;;;9.70;6.67;;;6.00;83.30;;;;;;5091917;28;20244;-65
2023/03/18 00:54:05;;;;;;;10.67;7.30;;;6.00;83.50;;;;;;5090343;28;20197;-65
2023/03/18 00:56:34;;;;;;;13.87;8.27;;;5.90;83.40;;;;;;5087138;28;20631;-65
2023/03/18 00:59:03;;;;;;;9.13;7.40;;;5.90;83.50;;;;;;5090433;28;20204;-65
2023/03/18 01:01:30;;;;;;;9.93;6.60;;;5.90;83.60;;;;;;5089479;28;20201;-65
2023/03/18 01:03:59;;;;;;;11.23;7.03;;;5.90;83.80;;;;;;5092096;28;20588;-65
2023/03/18 01:06:31;;;;;;;10.73;8.03;;;5.90;84.00;;;;;;5092481;28;20217;-65
2023/03/18 01:09:00;;;;;;;11.13;6.53;;;5.90;84.00;;;;;;5095986;28;20620;-65
2023/03/18 01:11:28;;;;;;;9.20;6.80;;;5.90;84.00;;;;;;5091327;28;20263;-65
2023/03/18 01:13:56;;;;;;;12.83;7.37;;;5.90;84.00;;;;;;5089321;28;20212;-65
2023/03/18 01:16:23;;;;;;;11.77;8.03;;;5.90;84.10;;;;;;5094927;28;20342;-65
2023/03/18 01:18:51;;;;;;;11.93;8.00;;;5.90;84.30;;;;;;5094556;28;20226;-65
2023/03/18 01:21:18;;;;;;;15.17;8.50;;;5.90;84.30;;;;;;5093644;28;20688;-65
2023/03/18 01:23:50;;;;;;;15.93;8.17;;;5.90;84.50;;;;;;5095075;28;20201;-66
2023/03/18 01:26:18;;;;;;;12.17;6.90;;;5.90;84.70;;;;;;5094576;28;20200;-65
2023/03/18 01:28:46;;;;;;;10.00;6.90;;;5.80;84.50;;;;;;5093418;28;20851;-65
2023/03/18 01:31:14;;;;;;;12.40;7.70;;;5.80;84.30;;;;;;5095557;28;20313;-65
2023/03/18 01:33:43;;;;;;;14.10;8.43;;;5.80;84.20;;;;;;5093005;28;20198;-65
2023/03/18 01:36:11;;;;;;;15.07;8.97;;;5.70;84.10;;;;;;5094277;28;20201;-65
2023/03/18 01:38:39;;;;;;;13.80;8.87;;;5.60;84.40;;;;;;5094691;28;20209;-65
2023/03/18 01:41:10;;;;;;;12.70;8.53;;;5.60;84.70;;;;;;5110438;28;20615;-65
2023/03/18 01:43:41;;;;;;;13.43;8.77;;;5.60;85.00;;;;;;5087271;28;20293;-65
2023/03/18 01:46:37;;;;;;;11.57;8.53;;;5.60;85.20;;;;;;5093360;28;20262;-65
2023/03/18 01:49:11;;;;;;;10.27;7.70;;;5.50;85.50;;;;;;5065289;28;20658;-65
2023/03/18 01:51:42;;;;;;;9.63;8.07;;;5.50;85.70;;;;;;5104340;28;20305;-65
2023/03/18 01:54:11;;;;;;;10.90;7.33;;;5.50;85.40;;;;;;5081733;28;20193;-65
2023/03/18 01:56:40;;;;;;;10.43;8.13;;;5.40;85.20;;;;;;5092072;28;20201;-65
2023/03/18 01:59:09;;;;;;;10.90;7.47;;;5.40;85.20;;;;;;5090969;28;20186;-65
2023/03/18 02:02:08;;;;;;;12.27;7.40;;;5.30;85.10;;;;;;5094800;28;20239;-65
2023/03/18 02:04:40;;;;;;;15.17;7.87;;;5.30;85.10;;;;;;5075680;28;20208;-65
2023/03/18 02:07:28;;;;;;;12.13;8.57;;;5.20;85.00;;;;;;5106549;28;20655;-65
2023/03/18 02:09:59;;;;;;;10.50;7.53;;;5.20;84.90;;;;;;5087140;28;20213;-65
2023/03/18 02:12:40;;;;;;;11.40;7.43;;;5.10;84.90;;;;;;5087413;28;20273;-65
2023/03/18 02:15:12;;;;;;;11.70;8.77;;;5.10;84.90;;;;;;5108559;28;20204;-65
2023/03/18 02:17:44;;;;;;;11.07;8.37;;;5.00;84.60;;;;;;5092285;28;20277;-65
2023/03/18 02:20:17;;;;;;;15.17;8.63;;;5.00;84.80;;;;;;5094019;28;20193;-65
2023/03/18 02:23:12;;;;;;;13.23;9.17;;;5.00;85.30;;;;;;5089857;28;20590;-65
2023/03/18 02:25:52;;;;;;;10.50;8.20;;;4.90;85.60;;;;;;5092732;28;20209;-65
2023/03/18 02:28:26;;;;;;;12.83;8.30;;;4.90;86.00;;;;;;5093280;28;20209;-65
2023/03/18 02:30:58;;;;;;;11.50;7.90;;;4.90;86.30;;;;;;5093649;28;20225;-65
2023/03/18 02:33:39;;;;;;;13.27;8.40;;;4.90;86.30;;;;;;5089810;28;20273;-66
2023/03/18 02:36:23;;;;;;;18.00;9.13;;;4.90;86.90;;;;;;5091961;28;20189;-65
2023/03/18 02:38:51;;;;;;;12.43;9.30;;;4.90;86.20;;;;;;5088473;28;20556;-65
2023/03/18 02:41:31;;;;;;;13.23;8.00;;;4.80;86.20;;;;;;5092885;28;20545;-65
2023/03/18 02:43:59;;;;;;;19.30;10.60;;;4.80;86.30;;;;;;5090855;28;20573;-65
2023/03/18 02:46:40;;;;;;;12.07;9.03;;;4.80;86.10;;;;;;5093820;28;20208;-65
2023/03/18 02:49:09;;;;;;;16.13;10.67;;;4.80;86.70;;;;;;5091425;28;20215;-65
2023/03/18 02:51:37;;;;;;;19.10;10.30;;;4.80;86.20;;;;;;5091864;28;20222;-65
2023/03/18 02:54:09;;;;;;;14.53;10.30;;;4.80;86.40;;;;;;5092422;28;20215;-65
2023/03/18 02:56:37;;;;;;;13.03;9.50;;;4.80;86.80;;;;;;5087192;28;20236;-65
2023/03/18 02:59:04;;;;;;;11.93;8.60;;;4.80;86.90;;;;;;5090687;28;20695;-65
2023/03/18 03:01:33;;;;;;;16.63;8.73;;;4.80;86.90;;;;;;5091209;28;20206;-65
2023/03/18 03:04:01;;;;;;;18.33;10.47;;;4.80;86.80;;;;;;5082364;28;20283;-65
2023/03/18 03:06:28;;;;;;;17.80;10.10;;;4.80;86.80;;;;;;5078994;28;20295;-65
2023/03/18 03:08:56;;;;;;;15.37;8.93;;;4.70;86.90;;;;;;5092526;28;20200;-65
2023/03/18 03:11:24;;;;;;;14.07;9.53;;;4.70;86.80;;;;;;5089784;28;20204;-65
2023/03/18 03:13:54;;;;;;;13.20;9.33;;;4.70;86.70;;;;;;5088930;28;20198;-65
2023/03/18 03:16:22;;;;;;;16.10;9.30;;;4.60;86.60;;;;;;5092706;28;20204;-65
2023/03/18 03:18:49;;;;;;;16.20;9.97;;;4.60;86.80;;;;;;5088046;28;20187;-65
2023/03/18 03:21:16;;;;;;;15.80;9.97;;;4.60;87.00;;;;;;5091934;28;20210;-65
2023/03/18 03:23:44;;;;;;;13.67;9.03;;;4.60;87.20;;;;;;5090822;28;20197;-65
2023/03/18 03:26:14;;;;;;;12.30;8.60;;;4.60;87.20;;;;;;5088261;28;20208;-65
2023/03/18 03:28:42;;;;;;;14.57;9.87;;;4.60;87.00;;;;;;5092072;28;20290;-65
2023/03/18 03:31:09;;;;;;;14.47;10.23;;;4.50;86.80;;;;;;5090664;28;20224;-66
2023/03/18 03:33:40;;;;;;;15.40;9.77;;;4.50;87.00;;;;;;5089735;28;20236;-65
2023/03/18 03:36:13;;;;;;;14.47;10.93;;;4.50;87.20;;;;;;5089116;28;20215;-65
2023/03/18 03:38:40;;;;;;;14.20;10.60;;;4.50;87.50;;;;;;5090265;28;20569;-65
2023/03/18 03:41:11;;;;;;;13.80;10.37;;;4.50;87.60;;;;;;5092721;28;20216;-64
2023/03/18 03:43:40;;;;;;;15.73;10.90;;;4.50;87.80;;;;;;5091247;28;20278;-65
2023/03/18 03:46:08;;;;;;;14.87;10.27;;;4.50;87.90;;;;;;5089794;28;20242;-65
2023/03/18 03:48:38;;;;;;;20.10;12.20;;;4.50;88.00;;;;;;5092047;28;20675;-65
2023/03/18 03:51:10;;;;;;;14.50;10.00;;;4.50;88.10;;;;;;5091751;28;20197;-64
2023/03/18 03:53:37;;;;;;;17.43;11.70;;;4.50;88.20;;;;;;5091129;28;20319;-65
2023/03/18 03:56:07;;;;;;;14.03;10.87;;;4.50;88.20;;;;;;5093562;28;20221;-67
2023/03/18 03:58:35;;;;;;;13.87;10.83;;;4.50;88.30;;;;;;5099349;28;20201;-65
2023/03/18 04:01:05;;;;;;;13.27;10.03;;;4.50;88.30;;;;;;5080001;28;20271;-64
2023/03/18 04:03:32;;;;;;;21.50;11.77;;;4.50;88.40;;;;;;5089730;28;20232;-65
2023/03/18 04:06:00;;;;;;;15.97;9.80;;;4.50;88.50;;;;;;5083721;28;20309;-65
2023/03/18 04:08:30;;;;;;;12.20;9.83;;;4.50;88.70;;;;;;5080739;28;20238;-65
2023/03/18 04:10:58;;;;;;;12.83;10.00;;;4.50;88.80;;;;;;5091614;28;20602;-66
2023/03/18 04:13:25;;;;;;;14.43;10.30;;;4.50;88.70;;;;;;5085398;28;20213;-65
2023/03/18 04:15:53;;;;;;;17.40;10.43;;;4.40;88.40;;;;;;5090042;28;20293;-65
2023/03/18 04:18:20;;;;;;;17.17;11.30;;;4.40;88.40;;;;;;5087599;28;20265;-64
2023/03/18 04:20:47;;;;;;;17.60;12.23;;;4.40;88.60;;;;;;5089938;28;20197;-64
2023/03/18 04:23:27;;;;;;;19.10;10.87;;;4.40;88.80;;;;;;5089942;28;20235;-64
2023/03/18 04:25:55;;;;;;;16.00;9.90;;;4.40;89.10;;;;;;5088799;28;20216;-65
2023/03/18 04:28:23;;;;;;;16.70;10.83;;;4.30;89.10;;;;;;5092145;28;20196;-64
2023/03/18 04:30:50;;;;;;;19.90;10.87;;;4.30;89.00;;;;;;5089004;28;20572;-65
2023/03/18 04:33:18;;;;;;;19.93;10.90;;;4.30;89.50;;;;;;5090533;28;20246;-65
2023/03/18 04:35:47;;;;;;;21.53;11.27;;;4.30;89.00;;;;;;5089791;28;20295;-65
2023/03/18 04:38:16;;;;;;;15.80;10.47;;;4.30;89.10;;;;;;5092850;28;20200;-64
2023/03/18 04:40:44;;;;;;;18.20;10.80;;;4.30;89.20;;;;;;5095066;28;20201;-65
2023/03/18 04:43:11;;;;;;;19.90;11.97;;;4.30;89.30;;;;;;5095385;28;20236;-65
2023/03/18 04:45:38;;;;;;;21.47;12.07;;;4.20;89.40;;;;;;5095516;28;20627;-65
2023/03/18 04:48:06;;;;;;;17.67;11.07;;;4.20;89.60;;;;;;5093765;28;20264;-65
2023/03/18 04:50:38;;;;;;;19.03;11.67;;;4.20;89.80;;;;;;5095508;28;20215;-65
2023/03/18 04:53:08;;;;;;;14.97;9.83;;;4.20;89.90;;;;;;5096230;28;20277;-65
2023/03/18 04:55:37;;;;;;;13.93;10.60;;;4.20;90.00;;;;;;5094760;28;20307;-65
2023/03/18 04:58:07;;;;;;;16.37;10.73;;;4.10;90.00;;;;;;5095934;28;20291;-65
2023/03/18 05:00:39;;;;;;;15.70;10.97;;;4.20;90.00;;;;;;5074582;28;20216;-64
2023/03/18 05:03:27;;;;;;;16.10;11.03;;;4.10;89.60;;;;;;5085815;28;20232;-65
2023/03/18 05:05:54;;;;;;;18.40;10.47;;;4.10;89.70;;;;;;5093275;28;20204;-65
2023/03/18 05:08:28;;;;;;;15.47;11.13;;;4.10;90.00;;;;;;5094948;28;20220;-65
2023/03/18 05:10:55;;;;;;;17.57;11.13;;;4.10;90.00;;;;;;5088432;28;20208;-66
2023/03/18 05:13:22;;;;;;;18.00;11.87;;;4.10;90.00;;;;;;5093460;28;20308;-65
2023/03/18 05:15:51;;;;;;;13.20;10.13;;;4.10;90.00;;;;;;5093124;28;20292;-64
2023/03/18 05:18:18;;;;;;;13.10;10.33;;;4.10;90.00;;;;;;5085062;28;20225;-65
2023/03/18 05:20:48;;;;;;;14.30;10.40;;;4.10;89.80;;;;;;5091844;28;20235;-65
2023/03/18 05:23:16;;;;;;;15.40;10.50;;;4.10;89.70;;;;;;5094157;28;20208;-65
2023/03/18 05:25:50;;;;;;;12.67;9.70;;;4.10;89.60;;;;;;5091612;28;20213;-64
2023/03/18 05:28:20;;;;;;;16.20;10.43;;;4.10;89.60;;;;;;5085814;28;20212;-65
2023/03/18 05:31:14;;;;;;;14.67;10.77;;;4.10;89.60;;;;;;5084417;28;20594;-65
2023/03/18 05:33:42;;;;;;;16.10;10.63;;;4.10;89.40;;;;;;5089068;28;20222;-65
2023/03/18 05:36:12;;;;;;;15.33;10.43;;;4.10;89.20;;;;;;5091560;28;20544;-65
2023/03/18 05:38:51;;;;;;;12.43;10.07;;;4.10;89.20;;;;;;5084759;28;20284;-65
2023/03/18 05:41:19;;;;;;;15.47;9.30;;;4.10;89.40;;;;;;5094759;28;20193;-65
2023/03/18 05:43:46;;;;;;;13.03;10.13;;;4.10;89.40;;;;;;5084084;28;20233;-65
2023/03/18 05:46:14;;;;;;;11.60;8.90;;;4.20;89.50;;;;;;5084023;28;20569;-65
2023/03/18 05:48:59;;;;;;;14.90;9.63;;;4.30;89.20;;;;;;5089604;28;20203;-65
2023/03/18 05:51:31;;;;;;;13.67;9.60;;;4.30;88.80;;;;;;5094300;28;20215;-65
2023/03/18 05:54:00;;;;;;;13.53;10.30;;;4.30;88.60;;;;;;5093178;28;20312;-65
2023/03/18 05:56:32;;;;;;;22.87;11.07;;;4.40;88.50;;;;;;5110669;28;20204;-65
2023/03/18 05:59:04;;;;;;;16.47;11.73;;;4.50;88.40;;;;;;5093862;28;20192;-65
2023/03/18 06:01:41;;;;;;;14.90;11.63;;;4.50;88.70;;;;;;5094226;28;20219;-68
2023/03/18 06:04:09;;;;;;;15.07;10.70;;;4.60;89.10;;;;;;5091461;28;20274;-65
2023/03/18 06:06:39;;;;;;;14.27;10.50;;;4.70;89.30;;;;;;5093230;28;20665;-65
2023/03/18 06:09:07;;;;;;;17.80;11.50;;;4.80;89.30;;;;;;5091380;28;20206;-65
2023/03/18 06:11:35;;;;;;;20.17;11.80;;;4.90;89.00;;;;;;5088340;28;20560;-64
2023/03/18 06:14:04;;;;;;;17.53;12.70;;;5.00;89.00;;;;;;5096840;28;20236;-65
2023/03/18 06:16:32;;;;;;;18.30;12.33;;;5.10;89.10;;;;;;5098352;28;20205;-65
2023/03/18 06:19:01;;;;;;;20.83;13.27;;;5.20;89.20;;;;;;5106798;28;20201;-65
2023/03/18 06:21:30;;;;;;;17.20;13.40;;;5.20;89.20;;;;;;5103504;28;20200;-65
2023/03/18 06:23:57;;;;;;;19.67;13.37;;;5.30;89.50;;;;;;5090661;28;20284;-65
2023/03/18 06:26:25;;;;;;;17.77;12.63;;;5.40;89.70;;;;;;5092642;28;20208;-65
2023/03/18 06:28:53;;;;;;;22.20;12.63;;;5.50;89.60;;;;;;5080668;28;20204;-65
2023/03/18 06:31:25;;;;;;;20.43;14.43;;;5.60;89.60;;;;;;5094336;28;20197;-64
2023/03/18 06:33:52;;;;;;;27.23;14.67;;;5.70;89.70;;;;;;5092272;28;20220;-65
2023/03/18 06:36:21;;;;;;;20.37;14.00;;;5.80;89.90;;;;;;5093381;28;20202;-65
2023/03/18 06:38:50;;;;;;;18.47;13.70;;;5.90;89.70;;;;;;5093343;28;20284;-65
2023/03/18 06:41:18;;;;;;;20.03;13.77;;;6.00;89.30;;;;;;5077436;28;20542;-65
2023/03/18 06:44:03;;;;;;;24.93;14.87;;;6.10;89.20;;;;;;5091673;28;20237;-65
2023/03/18 06:46:30;;;;;;;24.47;15.30;;;6.20;89.10;;;;;;5091746;28;20275;-65
2023/03/18 06:49:00;;;;;;;22.17;15.63;;;6.40;89.20;;;;;;5077470;28;20251;-65
2023/03/18 06:51:33;;;;;;;26.20;14.33;;;6.50;89.10;;;;;;5091927;28;20209;-65
2023/03/18 06:54:00;;;;;;;22.20;14.60;;;6.70;88.40;;;;;;5092067;28;20241;-65
2023/03/18 06:56:33;;;;;;;22.70;13.60;;;6.80;87.90;;;;;;5093535;28;20626;-65
2023/03/18 06:59:09;;;;;;;20.27;13.30;;;6.90;87.50;;;;;;5091070;28;20280;-65
2023/03/18 07:01:37;;;;;;;21.10;13.30;;;6.90;87.20;;;;;;5092068;28;20208;-65
2023/03/18 07:04:05;;;;;;;17.03;13.03;;;6.90;87.10;;;;;;5092179;28;20211;-65
2023/03/18 07:06:33;;;;;;;20.10;13.67;;;6.90;87.70;;;;;;5107028;28;20300;-65
2023/03/18 07:09:00;;;;;;;24.77;13.30;;;7.00;87.10;;;;;;5091538;28;20194;-65
2023/03/18 07:11:30;;;;;;;19.57;13.30;;;7.10;86.90;;;;;;5091649;28;20216;-65
2023/03/18 07:14:01;;;;;;;19.00;11.93;;;7.30;86.80;;;;;;5093234;28;20221;-65
2023/03/18 07:16:34;;;;;;;16.47;12.33;;;7.40;86.70;;;;;;5091727;28;20205;-65
2023/03/18 07:19:03;;;;;;;17.93;11.83;;;7.70;86.60;;;;;;5088754;28;20201;-65
2023/03/18 07:21:30;;;;;;;18.07;12.23;;;7.80;86.10;;;;;;5092003;28;20207;-65
2023/03/18 07:23:58;;;;;;;16.47;11.80;;;8.00;85.70;;;;;;5085649;28;20221;-65
2023/03/18 07:26:25;;;;;;;17.73;11.43;;;8.10;85.20;;;;;;5097502;28;20197;-65
2023/03/18 07:28:52;;;;;;;15.53;11.93;;;8.20;84.80;;;;;;5093477;28;20217;-65
2023/03/18 07:31:19;;;;;;;19.17;11.80;;;8.30;84.50;;;;;;5091961;28;20222;-65
2023/03/18 07:33:46;;;;;;;14.63;11.17;;;8.50;84.20;;;;;;5092591;28;20217;-65
2023/03/18 07:36:14;;;;;;;15.37;11.33;;;8.70;83.80;;;;;;5089602;28;20529;-65
2023/03/18 07:38:42;;;;;;;18.33;12.87;;;9.00;83.20;;;;;;5089724;28;20201;-65
2023/03/18 07:41:08;;;;;;;19.23;12.80;;;9.20;82.60;;;;;;5091754;28;20269;-65
2023/03/18 07:43:36;;;;;;;18.27;13.47;;;9.40;82.00;;;;;;5089858;28;20630;-65
2023/03/18 07:46:03;;;;;;;20.13;13.17;;;9.50;81.60;;;;;;5089755;28;20697;-65
2023/03/18 07:48:32;;;;;;;12.73;10.77;;;9.60;81.20;;;;;;5090415;28;20579;-65
2023/03/18 07:51:01;;;;;;;21.70;12.97;;;9.70;80.60;;;;;;5091644;28;20223;-65
2023/03/18 07:53:28;;;;;;;22.27;13.67;;;9.80;80.40;;;;;;5091990;28;20309;-65
2023/03/18 07:55:56;;;;;;;16.23;12.93;;;9.90;79.90;;;;;;5091248;28;20201;-65
2023/03/18 07:58:23;;;;;;;17.77;13.47;;;10.10;78.90;;;;;;5091463;28;20230;-65
2023/03/18 08:00:51;;;;;;;22.53;13.73;;;10.20;78.20;;;;;;5087666;28;20279;-65
2023/03/18 08:03:19;;;;;;;21.73;13.73;;;10.30;77.80;;;;;;5091096;28;20269;-65
2023/03/18 08:05:45;;;;;;;18.77;13.63;;;10.50;77.70;;;;;;5092885;28;20361;-67
2023/03/18 08:08:12;;;;;;;15.97;12.53;;;10.70;77.00;;;;;;5097501;28;20653;-67
2023/03/18 08:10:39;;;;;;;21.53;12.97;;;10.80;76.00;;;;;;5091210;28;20211;-64
2023/03/18 08:13:07;;;;;;;23.00;14.10;;;11.00;75.00;;;;;;5090074;28;20294;-66
2023/03/18 08:15:34;;;;;;;19.47;13.10;;;11.10;73.70;;;;;;5091016;28;20228;-64
2023/03/18 08:18:01;;;;;;;18.27;12.40;;;11.20;73.90;;;;;;5087657;28;20239;-65
2023/03/18 08:20:28;;;;;;;18.83;12.57;;;11.40;74.00;;;;;;5087991;28;20278;-65
2023/03/18 08:22:55;;;;;;;15.33;12.13;;;11.50;73.20;;;;;;5092756;28;20251;-66
2023/03/18 08:25:23;;;;;;;20.27;12.63;;;11.70;72.70;;;;;;5086621;28;20250;-64
2023/03/18 08:27:51;;;;;;;18.30;11.97;;;11.90;71.80;;;;;;5092352;28;20200;-66
2023/03/18 08:30:18;;;;;;;23.23;12.47;;;12.00;69.80;;;;;;5091700;28;20201;-65
2023/03/18 08:32:45;;;;;;;15.87;12.67;;;12.00;70.40;;;;;;5089585;28;20213;-65
2023/03/18 08:35:13;;;;;;;17.60;12.20;;;12.20;70.50;;;;;;5088887;28;20196;-65
2023/03/18 08:37:40;;;;;;;16.10;12.67;;;12.40;70.50;;;;;;5090594;28;20279;-65
2023/03/18 08:40:08;;;;;;;20.40;11.57;;;12.70;70.00;;;;;;5090869;28;20272;-65
2023/03/18 08:42:35;;;;;;;19.57;12.83;;;12.80;68.40;;;;;;5090322;28;20201;-65
2023/03/18 08:45:03;;;;;;;17.17;12.97;;;12.90;68.50;;;;;;5091564;28;20235;-65
2023/03/18 08:47:31;;;;;;;16.03;12.67;;;12.90;67.90;;;;;;5090676;28;20257;-65
2023/03/18 08:49:58;;;;;;;15.30;11.80;;;13.00;66.50;;;;;;5090893;28;20204;-65
2023/03/18 08:52:25;;;;;;;17.27;12.80;;;13.10;66.50;;;;;;5087056;28;20214;-65
2023/03/18 08:54:52;;;;;;;17.43;13.13;;;13.20;67.20;;;;;;5090797;28;20612;-65
2023/03/18 08:57:19;;;;;;;21.83;13.60;;;13.30;66.90;;;;;;5092070;28;20197;-65
2023/03/18 08:59:46;;;;;;;19.03;11.97;;;13.40;66.50;;;;;;5091147;28;20195;-66
2023/03/18 09:02:17;;;;;;;19.63;12.60;;;13.40;65.90;;;;;;5091898;28;20197;-65
2023/03/18 09:04:44;;;;;;;20.00;14.00;;;13.40;66.60;;;;;;5090657;28;20208;-65
2023/03/18 09:07:12;;;;;;;15.43;11.80;;;13.50;66.50;;;;;;5088699;28;20192;-66
2023/03/18 09:09:39;;;;;;;15.13;12.50;;;13.60;64.20;;;;;;5092338;28;20212;-65
2023/03/18 09:12:11;;;;;;;16.60;12.43;;;13.60;64.50;;;;;;5088164;28;20197;-65
2023/03/18 09:14:39;;;;;;;34.13;16.10;;;13.70;64.60;;;;;;5089239;28;20228;-65
2023/03/18 09:17:06;;;;;;;14.93;11.30;;;13.80;65.10;;;;;;5086591;28;20196;-65
2023/03/18 09:19:34;;;;;;;40.77;16.93;;;14.00;64.40;;;;;;5088322;28;20208;-65
2023/03/18 09:22:01;;;;;;;23.93;12.20;;;14.10;62.50;;;;;;5089189;28;20224;-65
2023/03/18 09:24:27;;;;;;;16.57;12.27;;;14.20;61.50;;;;;;5092416;28;20677;-65
2023/03/18 09:26:55;;;;;;;15.83;11.80;;;14.30;62.50;;;;;;5090656;28;20194;-65
2023/03/18 09:29:22;;;;;;;18.90;13.43;;;14.40;62.80;;;;;;5083836;28;20205;-65
2023/03/18 09:31:49;;;;;;;13.17;9.90;;;14.50;62.60;;;;;;5093536;28;20215;-66
2023/03/18 09:34:16;;;;;;;10.13;7.03;;;14.60;63.30;;;;;;5090420;28;20267;-66
2023/03/18 09:36:49;;;;;;;14.73;10.80;;;14.70;57.10;;;;;;5093368;28;20212;-65
2023/03/18 09:39:18;;;;;;;11.90;8.47;;;14.80;57.30;;;;;;5093359;28;20280;-65
2023/03/18 09:42:12;;;;;;;12.57;8.40;;;14.90;56.00;;;;;;5094678;28;20677;-65
2023/03/18 09:44:39;;;;;;;12.30;9.13;;;14.90;56.00;;;;;;5108588;28;20237;-65
2023/03/18 09:47:44;;;;;;;13.93;9.60;;;15.10;56.20;;;;;;5092242;28;20243;-66
2023/03/18 09:50:40;;;;;;;10.90;8.63;;;15.20;57.80;;;;;;5094787;28;20269;-65
2023/03/18 09:53:22;;;;;;;10.87;9.07;;;15.30;56.50;;;;;;5092171;28;20198;-66
2023/03/18 09:55:55;;;;;;;8.70;7.37;;;15.50;56.90;;;;;;5094164;28;20224;-65
2023/03/18 09:58:27;;;;;;;13.90;8.27;;;15.70;54.10;;;;;;5093206;28;20223;-65
2023/03/18 10:01:03;;;;;;;10.90;8.30;;;15.80;52.50;;;;;;5092977;28;20280;-65
2023/03/18 10:03:36;;;;;;;10.77;8.00;;;15.80;52.60;;;;;;5091422;28;20339;-66
2023/03/18 10:06:18;;;;;;;13.07;8.20;;;15.80;53.00;;;;;;5091346;28;20292;-65
2023/03/18 10:08:51;;;;;;;10.67;8.57;;;15.80;49.40;;;;;;5094909;28;20541;-66
2023/03/18 10:11:40;;;;;;;16.23;10.00;;;15.70;50.40;;;;;;5090072;28;20644;-66
2023/03/18 10:14:32;;;;;;;12.87;8.27;;;15.80;51.30;;;;;;5094561;28;20233;-65
2023/03/18 10:17:15;;;;;;;10.47;8.47;;;15.90;51.50;;;;;;5089968;28;20304;-65
2023/03/18 10:19:58;;;;;;;17.07;10.13;;;16.00;51.70;;;;;;5091816;28;20203;-66
2023/03/18 10:22:25;;;;;;;12.37;9.13;;;16.10;52.40;;;;;;5093757;28;20189;-66
2023/03/18 10:25:17;;;;;;;14.20;9.03;;;16.20;51.40;;;;;;5091172;28;20272;-66
2023/03/18 10:28:26;;;;;;;12.40;9.53;;;16.20;51.50;;;;;;5090342;28;20208;-65
2023/03/18 10:31:10;;;;;;;12.07;9.97;;;16.30;52.10;;;;;;5078536;28;20232;-65
2023/03/18 10:34:00;;;;;;;11.50;9.20;;;16.40;51.50;;;;;;5081282;28;20215;-65
2023/03/18 10:36:58;;;;;;;13.67;10.13;;;16.50;50.90;;;;;;5091660;28;20197;-65
2023/03/18 10:39:27;;;;;;;16.33;10.20;;;16.50;51.60;;;;;;5082413;28;20197;-66
2023/03/18 10:41:57;;;;;;;19.20;10.43;;;16.60;52.10;;;;;;5093694;28;20252;-66
2023/03/18 10:44:35;;;;;;;14.33;9.47;;;16.70;50.50;;;;;;5092885;28;20238;-66
2023/03/18 10:47:14;;;;;;;13.57;9.30;;;16.80;50.60;;;;;;5093426;28;20202;-66
2023/03/18 10:50:05;;;;;;;12.90;9.83;;;16.90;49.30;;;;;;5091851;28;20218;-65
2023/03/18 10:53:01;;;;;;;13.00;9.00;;;16.90;49.40;;;;;;5093611;28;20202;-65
2023/03/18 10:55:34;;;;;;;13.63;10.20;;;16.90;48.90;;;;;;5087998;28;20262;-65
2023/03/18 10:58:14;;;;;;;14.57;8.90;;;17.00;49.10;;;;;;5092241;28;20267;-65
2023/03/18 11:00:43;;;;;;;13.40;8.57;;;17.10;48.70;;;;;;5092869;28;20221;-66
2023/03/18 11:03:42;;;;;;;11.57;8.83;;;17.00;49.10;;;;;;5092595;28;20222;-66
2023/03/18 11:06:40;;;;;;;13.43;8.90;;;17.20;49.80;;;;;;5084869;28;20296;-66
2023/03/18 11:09:14;;;;;;;11.23;8.00;;;17.20;48.30;;;;;;5090182;28;20196;-65
2023/03/18 11:11:42;;;;;;;14.03;8.97;;;17.20;48.60;;;;;;5092207;28;20218;-66
2023/03/18 11:14:21;;;;;;;12.50;8.20;;;17.30;47.50;;;;;;5094460;28;20693;-65
2023/03/18 11:16:56;;;;;;;14.00;8.73;;;17.20;47.20;;;;;;5091684;28;20256;-66
2023/03/18 11:19:31;;;;;;;13.07;9.13;;;17.20;47.70;;;;;;5090152;28;20203;-65
2023/03/18 11:22:21;;;;;;;12.43;8.50;;;17.20;48.00;;;;;;5090535;28;20538;-65
2023/03/18 11:25:10;;;;;;;13.37;8.23;;;17.30;48.50;;;;;;5088028;28;20195;-66
2023/03/18 11:27:42;;;;;;;13.03;8.40;;;17.40;48.20;;;;;;5090831;28;20227;-65
2023/03/18 11:30:28;;;;;;;13.83;8.57;;;17.50;47.80;;;;;;5093353;28;20201;-66
2023/03/18 11:33:10;;;;;;;11.10;6.90;;;17.60;47.60;;;;;;5091107;28;20195;-65
2023/03/18 11:35:51;;;;;;;10.60;7.20;;;17.60;45.80;;;;;;5090190;28;20301;-65
2023/03/18 11:38:33;;;;;;;10.97;7.33;;;17.60;44.70;;;;;;5086179;28;20221;-65
2023/03/18 11:41:12;;;;;;;13.30;7.13;;;17.60;45.50;;;;;;5091777;28;20211;-65
2023/03/18 11:44:00;;;;;;;9.67;6.23;;;17.70;46.00;;;;;;5087220;28;20661;-66
2023/03/18 11:46:34;;;;;;;11.33;6.77;;;17.80;43.30;;;;;;5090864;28;20223;-65
2023/03/18 11:49:02;;;;;;;10.13;5.60;;;17.80;42.80;;;;;;5103256;28;20225;-65
2023/03/18 11:52:07;;;;;;;10.83;6.60;;;17.80;38.90;;;;;;5089334;28;20207;-65
2023/03/18 11:55:02;;;;;;;13.00;6.57;;;17.90;40.00;;;;;;5092806;28;20231;-65
2023/03/18 11:57:51;;;;;;;11.03;6.43;;;17.90;41.80;;;;;;5093172;28;20207;-65
2023/03/18 12:00:51;;;;;;;11.60;7.07;;;18.00;40.80;;;;;;5090294;28;20202;-65
2023/03/18 12:03:37;;;;;;;8.23;5.70;;;18.10;41.20;;;;;;5074259;28;20219;-65
2023/03/18 12:06:10;;;;;;;9.63;5.73;;;18.20;41.60;;;;;;5090107;28;20208;-65
2023/03/18 12:08:46;;;;;;;8.83;6.20;;;18.40;41.20;;;;;;5105488;28;20204;-65
2023/03/18 12:11:45;;;;;;;9.93;6.63;;;18.60;42.10;;;;;;5092677;28;20215;-66
2023/03/18 12:14:18;;;;;;;11.30;6.53;;;18.70;41.30;;;;;;5089092;28;20216;-65
2023/03/18 12:17:10;;;;;;;10.27;5.90;;;18.70;40.10;;;;;;5091372;28;20655;-65
2023/03/18 12:19:58;;;;;;;11.40;6.27;;;18.60;41.30;;;;;;5092157;28;20809;-66
2023/03/18 12:22:48;;;;;;;10.40;6.20;;;18.70;41.20;;;;;;5091766;28;20211;-65
2023/03/18 12:25:33;;;;;;;9.23;5.93;;;18.70;39.70;;;;;;5087550;28;20253;-66
2023/03/18 12:28:13;;;;;;;10.53;6.20;;;18.70;40.60;;;;;;5092921;28;20279;-65
2023/03/18 12:30:55;;;;;;;8.97;6.03;;;18.70;41.70;;;;;;5088681;28;20215;-65
2023/03/18 12:33:56;;;;;;;10.70;6.67;;;18.70;40.90;;;;;;5086223;28;20215;-66
2023/03/18 12:36:45;;;;;;;8.67;5.43;;;18.70;40.40;;;;;;5088108;28;20199;-65
2023/03/18 12:39:30;;;;;;;9.17;5.70;;;18.60;41.10;;;;;;5089447;28;20283;-65
2023/03/18 12:42:02;;;;;;;10.50;5.63;;;18.60;40.00;;;;;;5086576;28;20227;-65
2023/03/18 12:44:45;;;;;;;7.50;4.87;;;18.50;40.40;;;;;;5091102;28;20243;-66
2023/03/18 12:47:17;;;;;;;9.00;5.30;;;18.50;40.40;;;;;;5083444;28;20287;-65
2023/03/18 12:49:59;;;;;;;11.43;6.27;;;18.40;41.30;;;;;;5091603;28;20209;-65
2023/03/18 12:52:43;;;;;;;11.50;6.60;;;18.40;41.80;;;;;;5089108;28;20200;-66
2023/03/18 12:55:15;;;;;;;9.00;5.80;;;18.50;41.90;;;;;;5091555;28;20219;-65
2023/03/18 12:58:03;;;;;;;9.03;6.03;;;18.50;40.90;;;;;;5088451;28;20587;-65
2023/03/18 13:01:05;;;;;;;8.73;6.10;;;18.40;41.40;;;;;;5095113;28;20702;-65
2023/03/18 13:03:36;;;;;;;9.10;5.63;;;18.40;42.70;;;;;;5087965;28;20218;-65
2023/03/18 13:06:21;;;;;;;9.07;5.97;;;18.50;41.10;;;;;;5094283;28;20201;-65
2023/03/18 13:09:03;;;;;;;9.20;5.73;;;18.40;42.70;;;;;;5094093;28;20224;-65